Time;durP1;ratioP1;P1;durP2;ratioP2;P2;SDS_P1;SDS_P2;PMS_P1;PMS_P2;Temp;Humidity;BMP_temperature;BMP_pressure;BME280_temperature;BME280_humidity;BME280_pressure;Samples;Min_cycle;Max_cycle;Signal;HPM_P1;HPM_P2
2022/03/18 00:02:24;;;;;;;37.97;25.38;;;7.30;99.90;;;;;;4995069;28;20031;-73
2022/03/18 00:04:51;;;;;;;37.60;26.92;;;7.30;99.90;;;;;;5001472;28;20495;-72
2022/03/18 00:07:20;;;;;;;40.58;26.63;;;7.30;99.90;;;;;;4990442;28;20030;-72
2022/03/18 00:09:46;;;;;;;37.75;25.90;;;7.30;99.90;;;;;;4997746;28;20027;-72
2022/03/18 00:12:12;;;;;;;37.38;25.42;;;7.30;99.90;;;;;;4997737;28;20424;-71
2022/03/18 00:14:39;;;;;;;39.13;26.35;;;7.20;99.90;;;;;;4998004;28;20534;-73
2022/03/18 00:17:09;;;;;;;37.42;24.35;;;7.20;99.90;;;;;;4997931;28;20026;-72
2022/03/18 00:19:35;;;;;;;41.38;28.42;;;7.10;99.90;;;;;;4996028;28;20053;-71
2022/03/18 00:22:01;;;;;;;37.20;26.48;;;7.20;99.90;;;;;;4988860;28;20469;-74
2022/03/18 00:24:28;;;;;;;39.75;26.67;;;7.20;99.90;;;;;;4995726;28;20085;-74
2022/03/18 00:26:53;;;;;;;35.85;26.20;;;7.20;99.90;;;;;;4992918;28;20546;-74
2022/03/18 00:29:19;;;;;;;37.63;27.70;;;7.10;99.90;;;;;;4998693;28;20477;-74
2022/03/18 00:31:44;;;;;;;40.53;27.98;;;7.10;99.90;;;;;;4999785;28;20126;-72
2022/03/18 00:34:10;;;;;;;36.70;27.42;;;7.10;99.90;;;;;;4993305;28;20031;-72
2022/03/18 00:36:37;;;;;;;35.10;26.23;;;7.10;99.90;;;;;;4993703;28;20026;-73
2022/03/18 00:39:03;;;;;;;36.75;26.08;;;7.10;99.90;;;;;;4986165;28;20162;-73
2022/03/18 00:41:28;;;;;;;37.58;26.58;;;7.10;99.90;;;;;;4992644;28;20515;-73
2022/03/18 00:43:54;;;;;;;33.55;25.60;;;7.10;99.90;;;;;;4997950;28;20105;-73
2022/03/18 00:46:22;;;;;;;34.78;25.90;;;7.20;99.90;;;;;;4994447;28;20022;-73
2022/03/18 00:54:16;;;;;;;34.08;25.17;;;7.10;99.90;;;;;;4994936;28;20041;-74
2022/03/18 00:56:42;;;;;;;34.25;24.58;;;7.00;99.90;;;;;;4999829;28;20030;-73
2022/03/18 00:59:08;;;;;;;34.90;26.15;;;7.00;99.90;;;;;;4997298;28;20026;-74
2022/03/18 01:01:33;;;;;;;33.08;25.35;;;7.00;99.90;;;;;;4997633;28;20033;-73
2022/03/18 01:03:59;;;;;;;34.33;25.15;;;7.00;99.90;;;;;;4992902;28;20030;-75
2022/03/18 01:06:25;;;;;;;33.72;24.85;;;7.00;99.90;;;;;;5000675;28;20026;-74
2022/03/18 01:08:50;;;;;;;34.20;24.67;;;7.00;99.90;;;;;;4996756;28;20489;-73
2022/03/18 01:11:16;;;;;;;32.10;24.77;;;7.00;99.90;;;;;;4995806;28;20460;-73
2022/03/18 01:13:42;;;;;;;32.45;23.70;;;6.90;99.90;;;;;;4993033;28;20033;-73
2022/03/18 01:16:07;;;;;;;32.92;23.25;;;6.90;99.90;;;;;;4997924;28;20120;-73
2022/03/18 01:18:33;;;;;;;35.20;22.48;;;6.80;99.90;;;;;;4999959;28;20110;-73
2022/03/18 01:20:58;;;;;;;32.20;23.67;;;6.80;99.90;;;;;;4996014;28;20388;-73
2022/03/18 01:23:25;;;;;;;31.65;23.25;;;6.80;99.90;;;;;;5001050;28;20504;-74
2022/03/18 01:25:51;;;;;;;32.35;21.92;;;6.80;99.90;;;;;;4996157;28;20022;-74
2022/03/18 01:28:16;;;;;;;35.85;24.02;;;6.70;99.90;;;;;;4993534;28;20022;-75
2022/03/18 01:30:42;;;;;;;33.22;24.30;;;6.70;99.90;;;;;;5000296;28;20029;-74
2022/03/18 01:33:07;;;;;;;33.50;23.45;;;6.70;99.90;;;;;;4995123;28;20026;-74
2022/03/18 01:35:32;;;;;;;34.35;24.80;;;6.80;99.90;;;;;;5001107;28;20033;-73
2022/03/18 01:37:58;;;;;;;36.92;25.05;;;6.70;99.90;;;;;;4996694;28;20038;-73
2022/03/18 01:40:24;;;;;;;36.60;24.70;;;6.70;99.90;;;;;;4998534;28;20404;-74
2022/03/18 01:42:49;;;;;;;33.15;23.67;;;6.70;99.90;;;;;;4992494;28;20030;-74
2022/03/18 01:45:15;;;;;;;34.55;24.42;;;6.70;99.90;;;;;;5000409;28;20485;-74
2022/03/18 01:47:43;;;;;;;35.75;23.30;;;6.60;99.90;;;;;;4991061;28;20070;-74
2022/03/18 01:50:13;;;;;;;32.15;24.02;;;6.60;99.90;;;;;;4998796;28;20033;-73
2022/03/18 01:52:39;;;;;;;35.45;24.25;;;6.60;99.90;;;;;;4979270;28;20073;-74
2022/03/18 01:55:06;;;;;;;33.03;23.48;;;6.50;99.90;;;;;;4999554;28;20043;-74
2022/03/18 01:57:32;;;;;;;32.58;22.38;;;6.60;99.90;;;;;;4985208;28;20484;-74
2022/03/18 01:59:58;;;;;;;31.63;22.95;;;6.50;99.90;;;;;;4992349;28;20085;-73
2022/03/18 02:02:24;;;;;;;36.63;24.05;;;6.50;99.90;;;;;;4992081;28;20026;-74
2022/03/18 02:04:49;;;;;;;34.28;24.23;;;6.50;99.90;;;;;;4991004;28;20035;-74
2022/03/18 02:07:16;;;;;;;34.60;23.35;;;6.50;99.90;;;;;;4992449;28;20365;-75
2022/03/18 02:09:43;;;;;;;33.42;24.20;;;6.50;99.90;;;;;;4991059;28;20404;-74
2022/03/18 02:12:09;;;;;;;32.63;23.50;;;6.50;99.90;;;;;;4990783;28;20153;-74
2022/03/18 02:14:41;;;;;;;36.53;24.73;;;6.40;99.90;;;;;;4992184;28;20026;-74
2022/03/18 02:17:08;;;;;;;37.72;25.15;;;6.40;99.90;;;;;;4992026;28;20043;-74
2022/03/18 02:19:35;;;;;;;32.00;24.15;;;6.40;99.90;;;;;;4992271;28;20026;-74
2022/03/18 02:22:05;;;;;;;34.63;24.15;;;6.40;99.90;;;;;;4991901;28;20053;-74
2022/03/18 02:24:31;;;;;;;37.47;23.50;;;6.40;99.90;;;;;;4992171;28;20492;-74
2022/03/18 02:26:56;;;;;;;37.00;25.02;;;6.50;99.90;;;;;;5002408;28;20025;-75
2022/03/18 02:29:23;;;;;;;31.73;23.42;;;6.50;99.90;;;;;;4971566;28;20477;-75
2022/03/18 02:31:49;;;;;;;32.30;22.13;;;6.40;99.90;;;;;;4971625;28;20050;-74
2022/03/18 02:34:15;;;;;;;27.52;21.00;;;6.40;99.90;;;;;;4980809;28;20485;-74
2022/03/18 02:36:41;;;;;;;28.63;20.50;;;6.40;99.90;;;;;;4992821;28;20058;-74
2022/03/18 02:39:07;;;;;;;28.17;19.95;;;6.40;99.90;;;;;;4992713;28;20101;-74
2022/03/18 02:41:33;;;;;;;25.35;19.20;;;6.40;99.90;;;;;;4991843;28;20027;-75
2022/03/18 02:43:59;;;;;;;26.85;19.02;;;6.40;99.90;;;;;;4992358;28;20026;-75
2022/03/18 02:46:24;;;;;;;24.52;17.05;;;6.40;99.90;;;;;;4990635;28;20057;-74
2022/03/18 02:48:50;;;;;;;26.65;17.80;;;6.40;99.90;;;;;;4992063;28;20077;-74
2022/03/18 02:51:16;;;;;;;25.52;18.08;;;6.30;99.90;;;;;;4990402;28;20022;-76
2022/03/18 02:53:42;;;;;;;24.95;17.70;;;6.40;99.90;;;;;;4993117;28;20054;-75
2022/03/18 02:56:07;;;;;;;24.80;17.05;;;6.20;99.90;;;;;;4995727;28;20054;-75
2022/03/18 02:58:35;;;;;;;25.80;18.00;;;6.20;99.90;;;;;;4995635;28;20109;-75
2022/03/18 03:01:01;;;;;;;26.35;16.55;;;6.10;99.90;;;;;;4995293;28;20026;-74
2022/03/18 03:03:27;;;;;;;25.85;17.27;;;6.10;99.90;;;;;;4994226;28;20033;-75
2022/03/18 03:08:37;;;;;;;25.75;16.33;;;6.10;99.90;;;;;;4995823;28;20081;-74
2022/03/18 03:11:02;;;;;;;24.67;15.80;;;6.10;99.90;;;;;;4995312;28;20022;-75
2022/03/18 03:13:28;;;;;;;26.38;16.67;;;6.00;99.90;;;;;;4995249;28;20073;-74
2022/03/18 03:15:53;;;;;;;26.02;16.40;;;5.90;99.90;;;;;;4995319;28;20502;-74
2022/03/18 03:18:19;;;;;;;25.50;15.55;;;6.00;99.90;;;;;;4994038;28;20022;-75
2022/03/18 03:20:45;;;;;;;22.98;16.17;;;5.90;99.90;;;;;;4995000;28;20450;-75
2022/03/18 03:23:10;;;;;;;31.58;16.38;;;5.90;99.90;;;;;;4995058;28;20045;-73
2022/03/18 03:25:36;;;;;;;25.63;16.98;;;5.90;99.90;;;;;;4995023;28;20109;-73
2022/03/18 03:28:01;;;;;;;26.08;16.15;;;5.80;99.90;;;;;;4995137;28;20030;-73
2022/03/18 03:30:27;;;;;;;26.58;17.00;;;5.80;99.90;;;;;;4994837;28;20365;-74
2022/03/18 03:32:53;;;;;;;26.70;16.67;;;5.80;99.90;;;;;;4994153;28;20242;-74
2022/03/18 03:35:19;;;;;;;28.80;17.70;;;5.80;99.90;;;;;;4993929;28;20026;-75
2022/03/18 03:37:45;;;;;;;27.40;16.75;;;5.70;99.90;;;;;;4998338;28;20030;-75
2022/03/18 03:40:15;;;;;;;28.85;17.30;;;5.80;99.90;;;;;;4986762;28;20157;-75
2022/03/18 03:42:41;;;;;;;27.98;17.63;;;5.80;99.90;;;;;;4990350;28;20038;-76
2022/03/18 03:45:12;;;;;;;32.35;18.42;;;5.80;99.90;;;;;;4994739;28;20030;-76
2022/03/18 03:47:39;;;;;;;29.48;20.05;;;5.80;99.90;;;;;;4994811;28;20027;-73
2022/03/18 03:50:06;;;;;;;30.02;18.98;;;5.80;99.90;;;;;;4993310;28;20113;-74
2022/03/18 03:52:32;;;;;;;34.38;20.52;;;5.70;99.90;;;;;;4994487;28;20031;-74
2022/03/18 03:54:57;;;;;;;36.55;21.60;;;5.70;99.90;;;;;;4994543;28;20026;-75
2022/03/18 03:57:23;;;;;;;37.25;22.90;;;5.70;99.90;;;;;;4993509;28;20109;-74
2022/03/18 03:59:48;;;;;;;37.33;22.75;;;5.80;99.90;;;;;;4994517;28;20037;-75
2022/03/18 04:02:14;;;;;;;36.33;22.95;;;5.70;99.90;;;;;;5012438;28;20031;-76
2022/03/18 04:04:39;;;;;;;36.63;23.10;;;5.70;99.90;;;;;;4989671;28;20038;-75
2022/03/18 04:07:05;;;;;;;37.30;23.70;;;5.70;99.90;;;;;;4994232;28;20511;-76
2022/03/18 04:09:31;;;;;;;40.80;23.48;;;5.70;99.90;;;;;;4994397;28;20439;-76
2022/03/18 04:11:56;;;;;;;42.90;24.92;;;5.70;99.90;;;;;;4992842;28;20124;-76
2022/03/18 04:14:22;;;;;;;40.92;25.30;;;5.70;99.90;;;;;;4994137;28;20523;-76
2022/03/18 04:16:47;;;;;;;38.55;24.08;;;5.70;99.90;;;;;;4993228;28;20492;-76
2022/03/18 04:19:13;;;;;;;35.75;23.55;;;5.70;99.90;;;;;;4994183;28;20036;-76
2022/03/18 04:21:39;;;;;;;38.55;23.98;;;5.70;99.90;;;;;;4993924;28;20088;-74
2022/03/18 04:24:05;;;;;;;39.08;23.90;;;5.70;99.90;;;;;;4992500;28;20092;-73
2022/03/18 04:26:31;;;;;;;39.17;24.33;;;5.70;99.90;;;;;;4993991;28;20473;-74
2022/03/18 04:28:56;;;;;;;36.28;23.88;;;5.70;99.90;;;;;;4989575;28;20029;-72
2022/03/18 04:31:23;;;;;;;37.05;24.73;;;5.70;99.90;;;;;;4993771;28;20116;-72
2022/03/18 04:33:48;;;;;;;41.85;25.60;;;5.70;99.90;;;;;;4998951;28;20037;-74
2022/03/18 04:36:14;;;;;;;39.70;23.70;;;5.60;99.90;;;;;;4990174;28;20047;-75
2022/03/18 04:38:39;;;;;;;40.60;24.88;;;5.60;99.90;;;;;;4974275;28;20090;-74
2022/03/18 04:41:05;;;;;;;39.30;24.17;;;5.60;99.90;;;;;;4985587;28;20031;-74
2022/03/18 04:43:31;;;;;;;43.42;24.50;;;5.70;99.90;;;;;;4998526;28;20104;-74
2022/03/18 04:45:57;;;;;;;37.17;24.02;;;5.60;99.90;;;;;;4989558;28;20051;-73
2022/03/18 04:48:23;;;;;;;36.17;23.90;;;5.60;99.90;;;;;;4974240;28;20026;-72
2022/03/18 04:50:49;;;;;;;35.15;22.58;;;5.70;99.90;;;;;;4985203;28;20396;-73
2022/03/18 04:53:15;;;;;;;40.13;24.63;;;5.70;99.90;;;;;;4993335;28;20026;-73
2022/03/18 04:55:40;;;;;;;35.22;23.02;;;5.60;99.90;;;;;;4982399;28;20035;-73
2022/03/18 04:58:06;;;;;;;37.83;23.00;;;5.60;99.90;;;;;;4990254;28;20105;-72
2022/03/18 05:00:31;;;;;;;36.80;23.45;;;5.60;99.90;;;;;;4993221;28;20033;-73
2022/03/18 05:02:57;;;;;;;37.53;23.45;;;5.60;99.90;;;;;;4993284;28;20027;-73
2022/03/18 05:05:22;;;;;;;37.45;24.33;;;5.60;99.90;;;;;;4993859;28;20022;-73
2022/03/18 05:07:50;;;;;;;36.63;22.35;;;5.70;99.90;;;;;;4992247;28;20037;-74
2022/03/18 05:10:17;;;;;;;37.83;23.80;;;5.50;99.90;;;;;;4984913;28;20109;-74
2022/03/18 05:12:42;;;;;;;36.40;22.80;;;5.50;99.90;;;;;;4997882;28;20033;-74
2022/03/18 05:15:09;;;;;;;36.25;21.80;;;5.50;99.90;;;;;;5001598;28;20022;-75
2022/03/18 05:17:35;;;;;;;32.60;21.33;;;5.50;99.90;;;;;;4991621;28;20183;-75
2022/03/18 05:20:03;;;;;;;32.75;22.45;;;5.50;99.90;;;;;;4993160;28;20109;-75
2022/03/18 05:22:28;;;;;;;31.88;21.13;;;5.50;99.90;;;;;;4991582;28;20400;-75
2022/03/18 05:24:54;;;;;;;31.02;21.80;;;5.50;99.90;;;;;;4992853;28;20041;-74
2022/03/18 05:27:19;;;;;;;33.13;21.80;;;5.50;99.90;;;;;;4992684;28;20094;-74
2022/03/18 05:29:45;;;;;;;35.50;21.67;;;5.60;99.90;;;;;;4992874;28;20026;-74
2022/03/18 05:32:11;;;;;;;35.53;22.25;;;5.50;99.90;;;;;;4991242;28;20034;-74
2022/03/18 05:34:37;;;;;;;32.15;22.17;;;5.50;99.90;;;;;;4991524;28;20622;-74
2022/03/18 05:37:05;;;;;;;31.15;21.65;;;5.50;99.90;;;;;;4991201;28;20400;-74
2022/03/18 05:39:31;;;;;;;37.35;21.85;;;5.50;99.90;;;;;;4991463;28;20033;-75
2022/03/18 05:41:57;;;;;;;32.10;20.88;;;5.60;99.90;;;;;;5005629;28;20105;-74
2022/03/18 05:44:22;;;;;;;31.05;20.00;;;5.60;99.90;;;;;;4981036;28;20109;-74
2022/03/18 05:46:48;;;;;;;31.70;20.48;;;5.50;99.90;;;;;;4996621;28;20472;-74
2022/03/18 05:49:14;;;;;;;28.88;20.65;;;5.60;99.90;;;;;;5012512;28;20483;-74
2022/03/18 05:51:40;;;;;;;29.42;19.42;;;5.60;99.90;;;;;;4980352;28;20030;-74
2022/03/18 05:54:05;;;;;;;33.78;20.25;;;5.50;99.90;;;;;;4979808;28;20489;-74
2022/03/18 05:59:16;;;;;;;31.88;19.27;;;5.50;99.90;;;;;;4979849;28;20078;-74
2022/03/18 06:01:42;;;;;;;31.98;20.90;;;5.50;99.90;;;;;;4991140;28;20026;-74
2022/03/18 06:04:10;;;;;;;32.17;20.25;;;5.60;99.90;;;;;;4977850;28;20031;-74
2022/03/18 06:06:40;;;;;;;27.73;19.90;;;5.60;99.90;;;;;;4992174;28;20030;-73
2022/03/18 06:11:53;;;;;;;27.83;19.90;;;5.50;99.90;;;;;;4991502;28;20085;-73
2022/03/18 06:14:20;;;;;;;30.83;19.23;;;5.60;99.90;;;;;;4987537;28;20031;-73
2022/03/18 06:16:51;;;;;;;29.92;18.95;;;5.60;99.90;;;;;;4982929;28;20523;-72
2022/03/18 06:19:17;;;;;;;27.25;17.63;;;5.60;99.90;;;;;;4998882;28;20026;-73
2022/03/18 06:21:44;;;;;;;27.52;18.60;;;5.60;99.90;;;;;;4997307;28;20061;-73
2022/03/18 06:24:10;;;;;;;29.17;18.42;;;5.60;99.90;;;;;;4979504;28;20431;-74
2022/03/18 06:26:36;;;;;;;28.23;18.05;;;5.60;99.90;;;;;;4980045;28;20015;-74
2022/03/18 06:29:02;;;;;;;26.95;18.23;;;5.60;99.90;;;;;;4993456;28;20033;-74
2022/03/18 06:31:28;;;;;;;28.23;17.15;;;5.60;99.90;;;;;;4996045;28;20022;-74
2022/03/18 06:33:54;;;;;;;24.45;16.85;;;5.60;99.90;;;;;;4994791;28;20114;-74
2022/03/18 06:36:20;;;;;;;27.63;15.70;;;5.60;99.90;;;;;;4982546;28;20520;-74
2022/03/18 06:38:45;;;;;;;24.60;15.13;;;5.60;99.90;;;;;;4989748;28;20043;-74
2022/03/18 06:41:11;;;;;;;24.45;15.30;;;5.60;99.90;;;;;;4988762;28;20026;-74
2022/03/18 06:43:36;;;;;;;27.05;15.20;;;5.50;99.90;;;;;;5008910;28;20113;-74
2022/03/18 06:46:02;;;;;;;22.20;15.45;;;5.50;99.90;;;;;;4994702;28;20503;-74
2022/03/18 06:48:28;;;;;;;21.77;14.95;;;5.50;99.90;;;;;;5002059;28;20396;-74
2022/03/18 06:50:54;;;;;;;22.65;15.32;;;5.60;99.90;;;;;;5002791;28;20031;-73
2022/03/18 06:53:20;;;;;;;25.20;14.82;;;5.50;99.90;;;;;;5002026;28;20026;-74
2022/03/18 06:55:46;;;;;;;29.02;16.35;;;5.50;99.90;;;;;;5002505;28;20034;-73
2022/03/18 06:58:11;;;;;;;25.85;14.65;;;5.60;99.90;;;;;;5009995;28;20034;-74
2022/03/18 07:00:39;;;;;;;21.48;14.80;;;5.60;99.90;;;;;;4995442;28;20062;-73
2022/03/18 07:03:05;;;;;;;20.38;14.07;;;5.60;99.90;;;;;;4997060;28;20027;-73
2022/03/18 07:05:32;;;;;;;22.63;14.32;;;5.70;99.90;;;;;;4999191;28;20022;-74
2022/03/18 07:07:58;;;;;;;20.70;13.55;;;5.70;99.90;;;;;;4998838;28;20030;-74
2022/03/18 07:10:23;;;;;;;23.20;13.70;;;5.70;99.90;;;;;;5008470;28;20018;-74
2022/03/18 07:12:49;;;;;;;18.30;12.10;;;5.70;99.90;;;;;;5004906;28;20117;-74
2022/03/18 07:15:14;;;;;;;19.75;12.95;;;5.70;99.90;;;;;;4995677;28;20027;-73
2022/03/18 07:17:55;;;;;;;19.67;12.70;;;5.80;99.90;;;;;;5007791;28;20034;-74
2022/03/18 07:20:25;;;;;;;18.98;12.90;;;5.80;99.90;;;;;;4992941;28;20687;-73
2022/03/18 07:23:05;;;;;;;18.58;11.75;;;5.80;99.90;;;;;;5008197;22;20357;-73
2022/03/18 07:25:31;;;;;;;14.25;10.32;;;5.80;99.90;;;;;;4999344;28;20038;-72
2022/03/18 07:27:57;;;;;;;19.77;11.30;;;5.90;99.90;;;;;;4995175;28;20384;-73
2022/03/18 07:30:23;;;;;;;17.83;11.35;;;5.60;99.90;;;;;;4994900;28;20098;-73
2022/03/18 07:32:49;;;;;;;18.08;11.80;;;5.90;99.90;;;;;;4994731;28;20098;-74
2022/03/18 07:35:14;;;;;;;17.42;10.75;;;5.90;99.90;;;;;;4999341;28;20031;-73
2022/03/18 07:37:41;;;;;;;18.52;11.07;;;6.00;99.90;;;;;;5002594;28;20022;-73
2022/03/18 07:40:11;;;;;;;20.85;11.00;;;6.00;99.90;;;;;;4997482;28;20392;-72
2022/03/18 07:42:44;;;;;;;15.63;10.18;;;6.10;99.90;;;;;;5005491;28;20390;-72
2022/03/18 07:45:11;;;;;;;17.48;10.13;;;6.10;99.90;;;;;;5008303;28;20026;-73
2022/03/18 07:47:37;;;;;;;14.18;8.85;;;6.10;99.90;;;;;;5005428;28;20033;-72
2022/03/18 07:50:04;;;;;;;14.27;9.23;;;6.10;99.90;;;;;;5009323;28;20022;-72
2022/03/18 07:52:30;;;;;;;15.00;8.85;;;6.10;99.90;;;;;;4994375;28;20034;-72
2022/03/18 07:54:55;;;;;;;13.48;9.00;;;6.10;99.90;;;;;;4994783;28;20027;-72
2022/03/18 07:57:21;;;;;;;14.65;8.32;;;6.30;99.90;;;;;;4996654;28;20087;-72
2022/03/18 07:59:46;;;;;;;12.38;8.43;;;6.20;99.90;;;;;;4993252;28;20438;-73
2022/03/18 08:02:12;;;;;;;13.60;8.48;;;6.30;99.90;;;;;;4992839;28;20030;-72
2022/03/18 08:04:37;;;;;;;12.90;8.40;;;6.30;99.90;;;;;;4994078;28;20031;-73
2022/03/18 08:07:03;;;;;;;13.20;7.97;;;6.40;99.90;;;;;;4996412;28;20078;-73
2022/03/18 08:09:29;;;;;;;11.80;8.20;;;6.40;99.90;;;;;;4999412;28;20026;-72
2022/03/18 08:11:55;;;;;;;11.35;7.30;;;6.50;99.90;;;;;;5002478;28;20022;-73
2022/03/18 08:14:21;;;;;;;10.70;6.97;;;6.50;99.90;;;;;;5007383;28;20018;-73
2022/03/18 08:16:46;;;;;;;8.80;6.50;;;6.60;99.90;;;;;;4992978;28;20026;-73
2022/03/18 08:19:12;;;;;;;10.68;6.70;;;6.60;99.90;;;;;;4994272;28;20504;-73
2022/03/18 08:21:38;;;;;;;8.85;6.60;;;6.60;99.90;;;;;;4994058;28;20488;-73
2022/03/18 08:24:04;;;;;;;9.75;6.22;;;6.70;99.90;;;;;;5011945;28;20038;-73
2022/03/18 08:26:30;;;;;;;10.88;7.30;;;6.70;99.90;;;;;;5001904;28;20085;-72
2022/03/18 08:28:57;;;;;;;10.40;6.40;;;6.70;99.90;;;;;;4999147;28;20022;-73
2022/03/18 08:31:22;;;;;;;9.63;6.07;;;6.60;99.90;;;;;;5001982;28;20439;-73
2022/03/18 08:33:48;;;;;;;10.50;6.30;;;6.70;99.90;;;;;;5005756;28;20033;-73
2022/03/18 08:36:13;;;;;;;10.07;6.93;;;6.60;99.90;;;;;;5005522;28;20096;-72
2022/03/18 08:38:40;;;;;;;12.90;7.07;;;6.70;99.90;;;;;;5000316;28;20033;-73
2022/03/18 08:41:06;;;;;;;9.73;7.05;;;6.90;99.90;;;;;;4994681;28;20527;-73
2022/03/18 08:43:31;;;;;;;9.70;7.03;;;7.00;99.90;;;;;;5007518;28;20038;-73
2022/03/18 08:45:57;;;;;;;12.05;7.45;;;6.90;99.90;;;;;;5004735;28;20018;-73
2022/03/18 08:48:22;;;;;;;15.90;8.02;;;7.00;99.90;;;;;;5008946;28;20038;-73
2022/03/18 08:50:48;;;;;;;11.82;7.93;;;7.00;99.90;;;;;;5003911;28;20033;-73
2022/03/18 08:53:14;;;;;;;11.32;7.55;;;7.20;99.90;;;;;;4999956;28;20357;-72
2022/03/18 08:55:40;;;;;;;12.90;7.63;;;7.20;99.90;;;;;;5002922;28;20138;-73
2022/03/18 08:58:07;;;;;;;12.90;8.57;;;7.20;99.90;;;;;;4993668;28;20694;-73
2022/03/18 09:00:34;;;;;;;15.23;9.10;;;7.10;99.90;;;;;;5003807;28;20022;-72
2022/03/18 09:02:59;;;;;;;11.73;8.32;;;7.20;99.90;;;;;;4996223;28;20026;-73
2022/03/18 09:05:24;;;;;;;12.38;8.93;;;7.20;99.90;;;;;;5003665;28;20487;-72
2022/03/18 09:07:50;;;;;;;13.13;9.02;;;7.30;99.90;;;;;;4996319;28;20480;-73
2022/03/18 09:10:15;;;;;;;13.13;9.75;;;7.20;99.90;;;;;;5003537;28;20026;-73
2022/03/18 09:12:46;;;;;;;13.43;9.25;;;7.40;99.90;;;;;;4999576;28;20018;-73
2022/03/18 09:15:12;;;;;;;12.70;9.15;;;7.50;99.90;;;;;;5011767;28;20029;-73
2022/03/18 09:17:37;;;;;;;15.65;9.02;;;7.40;99.90;;;;;;4999620;28;20389;-73
2022/03/18 09:20:06;;;;;;;13.57;8.80;;;7.40;99.90;;;;;;5001078;28;20026;-73
2022/03/18 09:22:31;;;;;;;13.05;9.02;;;7.50;99.90;;;;;;4992920;28;20105;-73
2022/03/18 09:24:57;;;;;;;12.20;8.70;;;7.50;99.90;;;;;;4991885;28;20137;-72
2022/03/18 09:27:22;;;;;;;13.15;9.05;;;7.60;99.90;;;;;;5006183;28;20514;-73
2022/03/18 09:29:48;;;;;;;12.80;9.18;;;7.70;99.90;;;;;;5005687;28;20022;-73
2022/03/18 09:32:15;;;;;;;15.20;9.40;;;7.50;99.90;;;;;;4997857;28;20033;-73
2022/03/18 09:34:41;;;;;;;13.75;10.00;;;7.50;99.90;;;;;;4999963;28;20361;-74
2022/03/18 09:37:06;;;;;;;11.60;9.20;;;7.80;99.90;;;;;;4993591;28;20084;-72
2022/03/18 09:39:32;;;;;;;13.23;9.80;;;7.80;99.90;;;;;;5005522;28;20026;-73
2022/03/18 09:41:58;;;;;;;13.85;8.27;;;7.80;99.90;;;;;;4992758;28;20018;-73
2022/03/18 09:44:24;;;;;;;13.52;8.98;;;7.70;99.90;;;;;;5005292;28;20041;-73
2022/03/18 09:46:51;;;;;;;14.45;9.15;;;7.90;99.90;;;;;;5006084;28;20018;-73
2022/03/18 09:49:22;;;;;;;16.63;9.90;;;8.00;99.90;;;;;;4999678;28;20053;-73
2022/03/18 09:51:48;;;;;;;14.82;9.85;;;7.90;99.90;;;;;;4984270;28;20080;-74
2022/03/18 09:54:15;;;;;;;14.27;10.13;;;8.20;99.90;;;;;;5005785;28;20479;-73
2022/03/18 09:56:43;;;;;;;14.43;9.52;;;8.00;99.90;;;;;;4992741;28;20089;-73
2022/03/18 09:59:10;;;;;;;12.25;9.00;;;8.40;99.90;;;;;;4994096;28;20042;-74
2022/03/18 10:01:36;;;;;;;14.02;8.88;;;8.30;99.90;;;;;;4992400;28;20097;-73
2022/03/18 10:04:03;;;;;;;15.48;9.18;;;8.30;99.90;;;;;;5004253;28;20030;-73
2022/03/18 10:06:29;;;;;;;13.32;9.95;;;8.30;99.90;;;;;;5003625;28;20484;-73
2022/03/18 10:08:55;;;;;;;12.57;9.43;;;7.90;99.90;;;;;;5005748;28;20022;-74
2022/03/18 10:11:26;;;;;;;13.45;10.15;;;8.00;99.90;;;;;;4992315;28;20078;-74
2022/03/18 10:13:56;;;;;;;19.08;9.95;;;8.10;99.90;;;;;;4993530;28;20431;-74
2022/03/18 10:16:40;;;;;;;15.93;10.10;;;8.20;99.90;;;;;;5004037;28;20035;-73
2022/03/18 10:19:20;;;;;;;14.98;10.48;;;8.20;99.90;;;;;;5005659;28;20030;-74
2022/03/18 10:21:59;;;;;;;16.67;10.85;;;8.20;99.90;;;;;;5004377;28;20029;-74
2022/03/18 10:24:31;;;;;;;16.23;11.05;;;8.60;99.90;;;;;;4986254;28;20399;-73
2022/03/18 10:27:14;;;;;;;15.95;12.63;;;8.90;99.90;;;;;;4997948;28;20025;-72
2022/03/18 10:29:44;;;;;;;16.83;11.85;;;8.90;99.90;;;;;;5001703;28;20022;-74
2022/03/18 10:32:11;;;;;;;16.00;12.65;;;9.00;99.90;;;;;;4995859;28;20356;-74
2022/03/18 10:37:25;;;;;;;15.75;12.95;;;9.10;99.90;;;;;;5000032;28;20088;-73
2022/03/18 10:39:59;;;;;;;19.15;13.68;;;9.20;99.90;;;;;;4998647;28;20118;-73
2022/03/18 10:42:24;;;;;;;20.27;13.88;;;9.30;99.90;;;;;;5002907;28;20031;-74
2022/03/18 10:44:51;;;;;;;19.17;14.00;;;9.50;99.90;;;;;;5005295;28;20076;-74
2022/03/18 10:47:41;;;;;;;18.23;14.15;;;9.70;99.90;;;;;;5000683;28;20118;-74
2022/03/18 10:50:09;;;;;;;17.73;13.65;;;9.60;99.90;;;;;;4998630;28;20014;-74
2022/03/18 10:52:39;;;;;;;24.52;16.45;;;9.60;99.90;;;;;;5011490;28;20080;-75
2022/03/18 10:55:38;;;;;;;23.38;16.17;;;9.30;99.90;;;;;;4998563;28;20038;-74
2022/03/18 10:58:15;;;;;;;22.83;16.50;;;9.40;99.90;;;;;;4976757;28;20412;-74
2022/03/18 11:00:43;;;;;;;20.85;15.50;;;9.50;99.90;;;;;;4999396;28;20615;-74
2022/03/18 11:03:09;;;;;;;18.63;15.07;;;9.60;99.90;;;;;;5007905;28;20030;-74
2022/03/18 11:05:39;;;;;;;22.95;15.52;;;9.50;99.90;;;;;;4999524;28;20030;-74
2022/03/18 11:08:09;;;;;;;19.83;16.08;;;9.60;99.90;;;;;;5009258;28;20030;-74
2022/03/18 11:13:22;;;;;;;23.67;16.58;;;9.50;99.90;;;;;;5003466;28;20053;-74
2022/03/18 11:15:49;;;;;;;23.23;16.88;;;9.60;99.90;;;;;;5001562;28;20026;-74
2022/03/18 11:18:15;;;;;;;20.98;16.55;;;9.70;99.90;;;;;;5006631;28;20391;-75
2022/03/18 11:20:43;;;;;;;20.45;17.20;;;9.70;99.90;;;;;;5013507;28;20079;-75
2022/03/18 11:23:17;;;;;;;22.35;17.70;;;9.80;99.90;;;;;;5008109;28;20033;-75
2022/03/18 11:25:50;;;;;;;22.30;17.38;;;10.10;99.90;;;;;;5007813;28;20373;-74
2022/03/18 11:28:17;;;;;;;23.92;17.10;;;10.20;99.90;;;;;;5002543;28;20022;-74
2022/03/18 11:30:44;;;;;;;25.65;18.15;;;10.40;99.90;;;;;;5006250;28;20022;-74
2022/03/18 11:33:10;;;;;;;21.38;17.98;;;10.30;99.90;;;;;;5011248;28;20018;-74
2022/03/18 11:35:48;;;;;;;23.13;17.42;;;10.30;99.90;;;;;;5003185;28;20031;-74
2022/03/18 11:38:17;;;;;;;21.45;17.65;;;10.20;99.90;;;;;;5008014;28;20031;-74
2022/03/18 11:40:59;;;;;;;23.65;18.10;;;10.10;99.90;;;;;;5029563;28;20030;-74
2022/03/18 11:43:50;;;;;;;23.23;17.85;;;10.10;99.90;;;;;;5003306;28;20034;-75
2022/03/18 11:46:21;;;;;;;23.30;18.15;;;9.90;99.90;;;;;;5009806;28;20109;-74
2022/03/18 11:48:53;;;;;;;20.63;17.70;;;10.10;99.90;;;;;;5008956;28;20026;-74
2022/03/18 11:51:47;;;;;;;25.83;20.40;;;10.10;99.90;;;;;;5001533;28;20022;-74
2022/03/18 11:54:18;;;;;;;28.13;20.83;;;10.30;99.90;;;;;;5005063;28;20428;-74
2022/03/18 11:56:51;;;;;;;29.90;21.42;;;10.30;99.90;;;;;;5002887;28;20030;-74
2022/03/18 11:59:25;;;;;;;28.15;20.92;;;10.30;99.90;;;;;;5007242;28;20015;-74
2022/03/18 12:02:04;;;;;;;27.30;22.17;;;10.10;99.90;;;;;;5029094;28;20030;-73
2022/03/18 12:04:42;;;;;;;30.33;21.90;;;10.00;99.90;;;;;;4991363;28;20066;-75
2022/03/18 12:07:34;;;;;;;28.02;21.95;;;9.80;99.90;;;;;;4994677;28;20022;-74
2022/03/18 12:10:08;;;;;;;28.65;22.70;;;10.10;99.90;;;;;;5002940;28;20131;-74
2022/03/18 12:12:34;;;;;;;31.45;24.60;;;10.20;99.90;;;;;;5000840;28;20384;-74
2022/03/18 12:15:03;;;;;;;36.72;25.70;;;9.90;99.90;;;;;;5003785;28;20084;-74
2022/03/18 12:17:29;;;;;;;34.10;25.65;;;9.70;99.90;;;;;;5006073;28;20034;-74
2022/03/18 12:20:00;;;;;;;34.25;25.63;;;9.60;99.90;;;;;;5005178;28;20083;-73
2022/03/18 12:22:28;;;;;;;35.20;26.65;;;9.50;99.90;;;;;;5000669;28;20073;-73
2022/03/18 12:24:56;;;;;;;34.45;25.23;;;9.40;99.90;;;;;;4994025;28;20042;-73
2022/03/18 12:27:30;;;;;;;34.33;25.75;;;9.50;99.90;;;;;;4998775;28;20429;-73
2022/03/18 12:30:00;;;;;;;36.22;27.13;;;9.60;99.90;;;;;;5013408;28;20032;-73
2022/03/18 12:32:26;;;;;;;36.13;26.85;;;9.60;99.90;;;;;;4993932;28;20373;-73
2022/03/18 12:34:53;;;;;;;33.35;26.38;;;9.70;99.90;;;;;;4992728;28;20033;-73
2022/03/18 12:37:22;;;;;;;36.53;27.23;;;9.70;99.90;;;;;;5001257;28;20474;-73
2022/03/18 12:40:01;;;;;;;38.55;27.73;;;10.10;99.90;;;;;;5013432;28;20029;-74
2022/03/18 12:42:26;;;;;;;37.03;28.45;;;10.20;99.90;;;;;;5013206;28;20543;-73
2022/03/18 12:44:57;;;;;;;38.45;28.42;;;10.80;99.90;;;;;;5000143;28;20164;-75
2022/03/18 12:47:26;;;;;;;36.58;27.13;;;11.30;99.90;;;;;;5003823;28;20042;-73
2022/03/18 12:49:52;;;;;;;38.08;27.90;;;11.90;99.90;;;;;;4992414;28;20030;-73
2022/03/18 12:52:19;;;;;;;32.60;25.05;;;12.50;99.90;;;;;;5018057;28;20125;-73
2022/03/18 12:55:05;;;;;;;35.30;27.55;;;12.50;99.90;;;;;;4992216;28;20038;-73
2022/03/18 12:57:37;;;;;;;37.03;27.02;;;12.30;99.90;;;;;;5005457;28;20068;-73
2022/03/18 13:00:04;;;;;;;40.35;28.67;;;12.50;99.90;;;;;;5013195;28;20057;-74